x

8419317 - Wells, Me (welm1) Weather Station

4:18am - Wed 29th Jun 2016 All times are EDT. -4 hours from GMT.

  • Wind
    5mph, 6mph gusts
  • Sea Temp 49°f
  • 空気 Temp 60°f
  • Sea Pressure 1011mb
  • 8419317 - Wells, Me
  • 8419317 - Wells, Me

More Historic Weather Station data

Upgrade to MSW Pro to gain access to the past 30 days of data for over 8000 Wavebouys and Weather Stations around the globe.

Join Pro

Comparision Forecast

View Surf forecast
   
Wed 06/29 4:18am 5 6 mph 1011mb 49f 60f
4:12am 3 6 mph 1011mb 49f 60f
4:06am 5 6 mph 1011mb 49f 60f
4:00am 3 5 mph 1011mb 49f 60f
3:54am 3 5 mph 1011mb 50f 60f
3:48am 1 3 mph 1011mb 50f 60f
3:42am 1 5 mph 1011mb 51f 60f
3:36am 3 6 mph 1011mb 52f 60f
3:30am 5 6 mph 1011mb 53f 60f
3:24am 5 6 mph 1011mb 54f 60f
3:18am 5 6 mph 1011mb 55f 60f
3:12am 5 6 mph 1011mb 56f 60f
3:06am 5 6 mph 1011.1mb 56f 60f
3:00am 6 7 mph 1011.2mb 56f 60f
2:54am 5 7 mph 1011.3mb 56f 60f
2:48am 3 5 mph 1011.3mb 56f 60f
2:42am 2 3 mph 1011.4mb 56f 60f
2:36am 1 3 mph 1011.4mb 56f 59f
2:30am 2 5 mph 1011.4mb 56f 60f
2:24am 3 5 mph 1011.4mb 56f 60f
2:18am 3 5 mph 1011.5mb 56f 60f
2:12am 5 9 mph 1011.6mb 56f 59f
2:06am 6 13 mph 1011.6mb 56f 60f
2:00am 1 2 mph 1011.5mb 56f 60f
1:54am 1 3 mph 1011.5mb 56f 60f
1:48am  -  mph 1011.6mb 56f 60f
1:42am  -  mph 1011.6mb 55f 60f
1:36am  -  mph 1011.6mb 55f 60f
1:30am 3
mph
1011.7mb 55f 62f
1:24am  -  3 mph 1011.7mb 55f 62f
1:18am 2 3 mph 1011.8mb 55f 62f
1:12am 3 5 mph 1011.9mb 55f 61f
1:06am 3 5 mph 1011.9mb 55f 61f
1:00am 3 5 mph 1012mb 55f 62f
12:54am 3 5 mph 1012mb 55f 63f
12:48am 2
mph
1012mb 55f 63f
12:42am 2 3 mph 1012.1mb 54f 63f
12:36am 1 3 mph 1012.1mb 54f 64f
12:30am 2 6 mph 1012.1mb 54f 64f
12:24am 2 9 mph 1012.1mb 54f 63f
12:18am 8 10 mph 1012.2mb 54f 62f
12:12am 8 9 mph 1012.2mb 54f 62f
12:06am 5 6 mph 1012.1mb 54f 63f
12:00am 2 3 mph 1012.1mb 54f 62f
Tue 06/28 11:54pm 3
mph
1012.1mb 54f 62f
11:48pm  -  mph 1012.2mb 54f -
11:42pm  -  mph 1012.2mb 54f -
11:36pm  -  mph 1012.3mb 54f -
11:30pm 8 9 mph 1012.4mb 54f 62f
11:24pm 7 8 mph 1012.5mb 54f 62f
11:18pm 1 3 mph 1012.5mb 54f 62f
11:12pm 3
mph
1012.5mb 54f 63f
11:06pm  -  2 mph 1012.5mb 54f 64f
11:00pm  -  mph 1012.6mb 53f -
10:54pm  -  mph 1012.7mb 53f -
10:48pm 8 9 mph - 53f -
10:42pm 8 9 mph - 53f -
10:36pm 9 11 mph - 53f -
10:30pm  -  mph 1012.7mb 53f 62f
10:24pm  -  mph 1012.7mb 53f 64f
10:18pm  -  mph 1012.7mb 53f -
10:12pm  -  mph 1012.8mb 52f -
10:06pm  -  mph 1012.9mb 52f -
10:00pm  -  mph 1012.8mb 52f -
9:54pm  -  mph 1012.7mb 52f -
9:48pm  -  mph 1012.8mb 53f -
9:42pm  -  mph 1012.8mb 53f -
9:36pm  -  mph 1012.8mb 53f -
9:30pm  -  mph 1012.7mb 53f -
9:24pm  -  mph 1012.7mb 53f -
9:18pm  -  mph 1012.7mb 53f 62f
9:12pm  -  mph 1012.6mb 53f 62f
9:06pm  -  mph 1012.7mb 52f 62f
9:00pm  -  mph - 52f 62f
8:54pm  -  mph - 52f 62f
8:48pm  -  mph 1012.6mb 52f -
8:42pm  -  mph 1012.6mb 52f -
8:36pm  -  mph 1012.6mb 52f -
8:30pm  -  mph - 51f -
8:24pm  -  mph - 51f -
8:18pm  -  mph 1012.7mb 51f 62f
8:12pm  -  mph 1012.7mb 51f 63f
8:06pm  -  mph 1012.7mb 51f 63f
8:00pm  -  mph 1012.6mb 51f -
7:54pm  -  mph 1012.7mb 51f -
7:48pm  -  mph - 51f -
7:42pm  -  mph - 51f -
7:36pm  -  mph - 51f -
7:30pm  -  mph - 51f -
7:24pm  -  mph - 51f -
7:18pm  -  mph 1012.6mb 50f -
7:12pm  -  mph 1012.6mb 50f -
7:06pm  -  mph 1012.6mb 50f -
7:00pm  -  mph - 50f -
6:54pm  -  mph - 50f -
6:48pm  -  mph - 50f -
6:42pm  -  mph - 50f -
6:36pm  -  mph - 50f -
6:30pm  -  mph 1012.4mb - -
6:24pm  -  mph 1012.3mb - -
6:18pm  -  mph - 50f -
6:12pm  -  mph - 50f -
6:06pm  -  mph - 50f -
6:00pm  -  mph 1012.3mb 50f 63f
5:54pm  -  mph 1012.4mb 50f 64f
5:48pm  -  mph - 50f 64f
5:42pm  -  mph - 50f 64f
5:36pm  -  mph - 50f 63f
5:30pm 13 15 mph 1012.5mb 50f 63f
5:24pm 13 16 mph 1012.6mb 50f 63f
5:18pm 10 13 mph 1012.6mb 50f 63f
5:12pm 11 15 mph 1012.7mb 50f 63f
5:06pm 14 16 mph 1012.8mb 50f 64f
5:00pm 14 17 mph 1012.8mb 50f 64f
4:54pm 14 16 mph 1012.8mb 50f 64f
4:48pm 13 15 mph 1012.8mb 50f 64f
4:42pm 13 14 mph 1013mb 50f 63f
4:36pm 13 14 mph 1013.1mb 50f 64f
4:30pm 13 15 mph 1013.1mb 50f 64f
4:24pm 14 16 mph 1013.1mb 50f 64f
4:18pm 15 17 mph 1013.1mb 50f 64f
4:12pm 15 18 mph 1013.1mb 50f 64f
4:06pm 16 18 mph 1013.2mb 50f 64f
4:00pm 15 17 mph 1013.2mb 50f 63f
3:54pm 14 15 mph 1013.3mb 50f 63f
3:48pm 14 15 mph 1013.2mb 50f 64f
3:42pm 14 16 mph 1013.2mb 51f 64f
3:36pm 14 16 mph 1013.1mb 51f 64f
3:30pm 16 18 mph 1013.2mb 51f 65f
3:24pm 16 18 mph 1013.2mb 51f 65f
3:18pm 16 18 mph 1013.3mb 51f 65f
3:12pm 16 18 mph 1013.3mb 52f 64f
3:06pm 14 17 mph 1013.4mb 53f 64f
3:00pm 14 16 mph 1013.5mb 53f 64f
2:54pm 13 17 mph 1013.5mb 55f 63f
2:48pm 14 16 mph 1013.7mb 56f 63f
2:42pm 13 15 mph 1013.8mb 56f 62f
2:36pm 13 16 mph 1013.8mb 56f 62f
2:30pm 15 16 mph 1013.9mb 56f 63f
2:24pm 16 18 mph 1013.9mb 56f 63f
2:18pm 14 18 mph 1014mb 56f 63f
2:12pm 15 17 mph 1014mb 56f 62f
2:06pm 11 13 mph 1013.9mb 56f 62f
2:00pm 8 10 mph 1013.9mb 56f 62f
1:54pm 9 13 mph 1014mb 56f 61f
1:48pm 10 11 mph 1014mb 56f 62f
1:42pm 9 11 mph 1014mb 56f 61f
1:36pm 10 11 mph 1014mb 56f 61f
1:30pm 11 13 mph 1014mb 56f 61f
1:24pm 10 14 mph 1014.1mb 56f 62f
1:18pm 10 13 mph 1014.1mb 56f 62f
1:12pm 10 14 mph 1014.1mb 56f 61f
1:06pm 10 14 mph 1014.2mb 56f 61f
1:00pm 11 14 mph 1014.3mb 56f 62f
12:54pm 13 14 mph 1014.5mb 56f 62f
12:48pm 11 13 mph 1014.5mb 56f 63f
12:42pm 11 14 mph 1014.6mb 55f 63f
12:36pm 11 14 mph 1014.6mb 55f 63f
12:30pm 11 13 mph 1014.6mb 55f 64f
12:24pm 10 11 mph 1014.7mb 55f 64f
12:18pm 10 11 mph 1014.7mb 55f 64f
12:12pm 7 8 mph 1014.8mb 55f 64f
12:06pm 6 8 mph 1014.8mb 55f 64f
12:00pm 7 8 mph 1014.8mb 55f 63f
11:54am 8 11 mph 1014.8mb 55f 63f
11:48am 8 11 mph 1014.9mb 55f 62f
11:42am 10 11 mph 1014.9mb 55f 61f
11:36am 9 13 mph 1014.9mb 54f 61f
11:30am 9 13 mph 1014.9mb 54f 61f
11:24am 13 16 mph 1014.9mb 54f 61f
11:18am 15 17 mph 1014.8mb 54f 61f
11:12am 15 18 mph 1014.8mb 54f 61f
11:06am 15 18 mph 1014.8mb 54f 61f
11:00am 13 15 mph 1014.7mb 55f 62f
10:54am 13 14 mph 1014.7mb 55f 62f
10:48am 11 14 mph 1014.7mb 55f 62f
10:42am 11 14 mph 1014.7mb 55f 63f
10:36am 9 11 mph 1014.7mb 54f 62f
10:30am 10 11 mph 1014.7mb 54f 63f
10:24am 8 9 mph 1014.8mb 54f 63f
10:18am 8 9 mph 1014.8mb 54f 63f
10:12am 7 9 mph 1014.8mb 54f 66f
10:06am 8 9 mph 1014.9mb 54f 66f
10:00am 7 10 mph 1014.9mb 54f 66f
9:54am 10 13 mph 1014.9mb 53f 66f
9:48am  -  mph 1015mb 53f 65f
9:42am  -  mph 1015mb 53f 64f
9:36am  -  mph 1015mb 53f 63f
9:30am 8 9 mph 1015mb 53f 63f
9:24am 7 8 mph 1015mb 53f 62f
9:18am 8 13 mph 1015mb 53f 61f
9:12am 11 14 mph 1015mb 53f 60f
9:06am 11 14 mph 1015mb 53f 60f
9:00am 10 13 mph 1015mb 53f 60f
8:54am 10 11 mph 1015.1mb 52f 60f
8:48am 9 11 mph 1015.1mb 52f 60f
8:42am 10 11 mph 1015mb 52f 61f
8:36am 10 11 mph 1015.1mb 52f 61f
8:30am 10 13 mph 1015.1mb 52f 61f
8:24am 10 11 mph 1015mb 52f 60f
8:18am 8 10 mph 1015mb 52f 60f
8:12am 10
mph
1015mb 51f 60f
8:06am 9 10 mph 1015mb 51f 59f
8:00am 3 7 mph 1014.9mb 51f 60f
7:54am 2 3 mph 1014.9mb 51f 60f
7:48am 2 3 mph 1014.9mb 51f 60f
7:42am 2 6 mph 1014.9mb 51f 60f
7:36am 6 9 mph 1014.8mb 51f 59f
7:30am 9 10 mph 1014.8mb 51f 58f
7:24am 8 9 mph 1014.8mb 51f 59f
7:18am 8 9 mph 1014.7mb 51f 59f
7:12am 8 10 mph 1014.7mb 51f 58f
7:06am 5 6 mph 1014.7mb 51f 59f
7:00am 3 7 mph 1014.7mb 51f -
6:54am 6 8 mph 1014.7mb 51f -
6:48am 7 9 mph 1014.7mb 51f -
6:42am 2 6 mph 1014.7mb 51f -
6:36am 6 7 mph 1014.6mb 51f -
6:30am 5 6 mph 1014.5mb 51f 58f
6:24am 6 7 mph 1014.5mb 51f 58f
6:18am 7
mph
1014.5mb 51f 58f
6:12am 6 7 mph 1014.4mb 51f 59f
6:06am 7 8 mph 1014.4mb 51f 59f
6:00am 6
mph
1014.3mb 51f 58f
5:54am 6
mph
1014.2mb 51f 58f
5:48am 3 5 mph 1014.2mb 51f 58f
5:42am  -  1 mph 1014.2mb 51f 58f
5:36am  -  2 mph 1014.3mb 51f 58f
5:30am 1 3 mph 1014.3mb 51f 58f
5:24am 3 5 mph 1014.2mb 51f 58f
5:18am 3 5 mph 1014.2mb 51f 59f
5:12am 5
mph
1014.2mb 51f 58f
5:06am 3 5 mph 1014.2mb 51f 59f
5:00am 1 2 mph 1014.2mb 51f 59f
4:54am  -  2 mph 1014.1mb 51f 59f
4:48am 1 2 mph 1014mb 51f 59f
4:42am 1 3 mph 1014mb 51f 59f
4:36am 2
mph
1013.9mb 51f 59f
4:30am  -  1 mph 1013.9mb 51f 59f
4:24am  -  1 mph 1013.9mb 51f 59f
4:18am  -  mph 1013.9mb 51f 60f
4:12am  -  2 mph 1013.8mb 51f 60f
4:06am 2 3 mph 1013.8mb 51f 59f
4:00am 2 5 mph 1013.8mb 51f 58f
3:54am 3 6 mph 1013.8mb 51f 58f
3:48am 5 6 mph 1013.8mb 51f 58f
3:42am 3 6 mph 1013.8mb 51f 58f
3:36am 7 8 mph 1013.9mb 51f 58f
3:30am 8 10 mph 1013.9mb 51f 59f
3:24am 9 11 mph 1014mb 51f 59f
3:18am 8 10 mph 1014mb 51f 59f
3:12am 9 11 mph 1013.9mb 51f 60f
3:06am 8 9 mph 1013.9mb 51f 61f
3:00am 7 9 mph 1013.9mb 52f 61f
2:54am 8 9 mph 1014mb 52f 60f
2:48am 8 10 mph 1014.1mb - -
2:42am 9 11 mph 1014.1mb - -
2:36am 11 14 mph 1014.1mb - -
2:30am 11 13 mph 1014.1mb 56f 62f
2:24am 10 13 mph 1014mb 56f 62f
2:18am 10 11 mph 1014mb 57f 62f
2:12am 10 13 mph 1014mb 59f 62f
2:06am 11 14 mph 1014.1mb 62f 62f
2:00am 11 14 mph 1014.1mb 63f 63f
1:54am 11 14 mph 1014.1mb 63f 65f
1:48am 10 13 mph - - -
1:42am 10 11 mph - - -
1:36am 11 13 mph - - -
1:30am 10 14 mph 1014mb 63f 66f
1:24am 10 13 mph 1014mb 63f 66f
1:18am 10 14 mph 1014.1mb 63f 65f
1:12am 10 13 mph 1014.1mb 63f 65f
1:06am 10 15 mph 1014.1mb 63f 65f
1:00am 11 13 mph 1014.2mb 63f 64f
12:54am 11 14 mph 1014.3mb 63f 64f
12:48am 13 15 mph 1014.4mb 63f 63f
12:42am 14 18 mph 1014.4mb 63f 62f
12:36am 15 17 mph 1014.5mb 63f 62f
12:30am 15 17 mph 1014.5mb 63f 62f
12:24am 14 16 mph 1014.4mb 63f 62f
12:18am 14 16 mph 1014.4mb 63f 62f
12:12am 14 16 mph 1014.5mb 63f 62f
12:06am 14 15 mph 1014.5mb 63f 62f
12:00am 13 14 mph 1014.5mb 62f 62f
Mon 06/27 11:54pm 11 14 mph 1014.5mb 62f 63f
11:48pm  -  mph 1014.5mb 62f 62f
11:42pm  -  mph 1014.5mb 62f 62f
11:36pm  -  mph 1014.6mb 62f 62f
11:30pm 13 15 mph 1014.5mb 62f 63f
11:24pm 14 16 mph 1014.5mb 62f 63f
11:18pm 15 17 mph 1014.5mb 62f 63f
11:12pm 15 17 mph 1014.5mb 62f 64f
11:06pm 15 17 mph 1014.6mb 61f 63f
11:00pm  -  mph - 61f 63f
10:54pm  -  mph - 62f 64f
10:48pm  -  mph 1014.7mb 62f -
10:42pm  -  mph 1014.7mb 62f -
10:36pm  -  mph 1014.8mb 61f -
10:30pm  -  mph 1014.8mb 61f -
10:24pm  -  mph 1014.8mb 61f -
10:18pm  -  mph 1014.8mb - 63f
10:12pm  -  mph 1014.8mb - 64f
10:06pm  -  mph 1014.8mb - 64f
10:00pm  -  mph - 60f -
9:54pm  -  mph - 60f -
9:48pm  -  mph 1014.7mb - -
9:42pm  -  mph 1014.6mb - -
9:36pm  -  mph 1014.6mb - -
9:30pm  -  mph 1014.5mb 59f -
9:24pm  -  mph 1014.4mb 59f -
9:18pm  -  mph 1014.4mb 59f -
9:12pm  -  mph 1014.4mb 59f -
9:06pm  -  mph 1014.3mb 59f -
9:00pm  -  mph 1014.2mb 59f 65f
8:54pm  -  mph 1014.2mb 59f 66f
8:48pm  -  mph 1014.1mb 59f -
8:42pm  -  mph 1014mb 59f -
8:36pm  -  mph 1014mb 59f -
8:30pm  -  mph 1014mb 59f -
8:24pm  -  mph 1013.9mb 59f -
8:18pm  -  mph 1013.9mb 58f -
8:12pm  -  mph 1013.9mb 58f -
8:06pm  -  mph 1013.9mb 58f -
8:00pm  -  mph 1013.9mb 58f -
7:54pm  -  mph 1013.9mb 58f -
7:48pm  -  mph 1013.8mb - -
7:42pm  -  mph 1013.8mb - -
7:36pm  -  mph 1013.8mb - -
7:30pm  -  mph - 57f -
7:24pm  -  mph - 57f -
7:18pm  -  mph 1013.9mb 57f -
7:12pm  -  mph 1013.8mb 57f -
7:06pm  -  mph 1013.8mb 56f -
7:00pm  -  mph 1013.9mb 56f -
6:54pm  -  mph 1013.8mb 56f -
6:48pm  -  mph 1013.8mb 57f -
6:42pm  -  mph 1013.7mb 57f -
6:36pm  -  mph 1013.7mb 57f -
6:30pm  -  mph 1013.7mb 56f -
6:24pm  -  mph 1013.8mb 56f -
6:18pm  -  mph - 56f 69f
6:12pm  -  mph - 56f 69f
6:06pm  -  mph - 56f 67f
6:00pm  -  mph 1013.7mb 56f -
5:54pm  -  mph 1013.7mb 56f -
5:48pm  -  mph 1013.8mb 56f 67f
5:42pm  -  mph 1013.8mb 56f 67f
5:36pm  -  mph 1013.8mb 56f 67f
5:30pm 20 22 mph 1013.9mb 56f 67f
5:24pm 20 22 mph 1014mb 56f 68f
5:18pm 20 24 mph 1014mb 56f 68f
5:12pm 21 24 mph 1014mb 56f 68f
5:06pm 21 24 mph 1014mb 56f 68f
5:00pm 22 26 mph 1014mb 56f 68f
4:54pm 22 29 mph 1014.1mb 56f 68f
4:48pm 23 28 mph 1014.1mb 56f 68f
4:42pm 22 28 mph 1014.1mb 56f 68f
4:36pm 23 29 mph 1014.2mb 56f 68f
4:30pm 22 26 mph 1014.2mb 56f 68f
4:24pm 23 28 mph 1014.3mb 56f 69f
4:18pm 23 29 mph 1014.3mb 56f 69f
4:12pm 24 29 mph 1014.3mb 56f 69f
4:06pm 23 28 mph 1014.3mb 56f 69f
4:00pm 22 25 mph 1014.3mb 56f 68f
3:54pm 22 28 mph 1014.4mb 56f 69f
3:48pm 24 28 mph 1014.4mb 56f 69f
3:42pm 22 26 mph 1014.4mb 56f 68f
3:36pm 22 29 mph 1014.5mb 56f 68f
3:30pm 24 28 mph 1014.5mb 56f 68f
3:24pm 23 30 mph 1014.6mb 56f 68f
3:18pm 25 31 mph 1014.6mb 56f 68f
3:12pm 24 28 mph 1014.6mb 56f 68f
3:06pm 22 29 mph 1014.6mb 56f 68f
3:00pm 25 31 mph 1014.7mb 57f 68f
2:54pm 24 30 mph 1014.8mb 57f 69f
2:48pm  -  mph 1014.8mb 57f 69f
2:42pm  -  mph 1014.8mb 57f 69f
2:36pm  -  mph 1014.9mb 58f 69f
2:30pm 24 29 mph 1015mb 58f 68f
2:24pm 23 29 mph 1015mb 59f 68f
2:18pm 24 29 mph 1015mb 60f 68f
2:12pm 24 29 mph 1015.1mb 62f 68f
2:06pm 23 28 mph 1015.1mb 62f 69f
2:00pm 22 28 mph 1015mb 63f 69f
1:54pm 24 28 mph 1015.1mb 63f 69f
1:48pm 23 26 mph 1015mb 64f 69f
1:42pm 23 28 mph 1015.1mb 64f 68f
1:36pm 24 31 mph 1015.2mb 64f 68f
1:30pm 26 30 mph 1015.3mb 64f 68f
1:24pm 23 29 mph 1015.2mb 64f 67f
1:18pm 23 28 mph 1015.2mb 64f 67f
1:12pm 23 26 mph 1015.2mb 64f 68f
1:06pm 23 29 mph 1015.3mb 63f 67f
1:00pm 24 29 mph 1015.4mb 63f 67f
12:54pm 23 28 mph 1015.4mb 63f 67f
12:48pm 23 28 mph 1015.4mb 63f 68f
12:42pm 24 28 mph 1015.5mb 63f 67f
12:36pm 22 25 mph 1015.6mb 63f 67f
12:30pm 20 24 mph 1015.6mb 63f 69f
12:24pm 21 24 mph 1015.5mb 63f 69f
12:18pm 17 22 mph 1015.6mb 63f 67f
12:12pm 18 22 mph 1015.8mb 62f 67f
12:06pm 20 25 mph 1015.8mb 62f 66f
12:00pm 20 24 mph 1015.9mb 62f 66f
11:54am 18 22 mph 1015.9mb 61f 66f
11:48am 17 22 mph 1015.9mb 61f 67f
11:42am 18 23 mph 1015.9mb 60f 67f
11:36am 18 21 mph 1015.9mb 60f 67f
11:30am 17 20 mph 1016mb 60f 70f
11:24am 15 18 mph 1016mb 60f 69f
11:18am 16 18 mph 1016mb 60f 69f
11:12am 15 18 mph 1016mb 60f 69f
11:06am 16 18 mph 1016.1mb 60f 68f
11:00am 14 16 mph 1016mb 59f 69f
10:54am 11 14 mph 1016mb 59f 69f
10:48am 13 15 mph 1016.1mb 59f 70f
10:42am 14 17 mph 1016.2mb 59f 70f
10:36am 15 17 mph 1016.2mb 59f 71f
10:30am 10 16 mph 1016.1mb 59f 78f
10:24am 9 15 mph 1016.2mb 59f 76f
10:18am 9 10 mph 1016.2mb 59f 73f
10:12am 8 10 mph 1016.2mb 59f 73f
10:06am 9 10 mph 1016.3mb 59f 71f
10:00am 9 11 mph 1016.4mb 59f 67f
9:54am 11 15 mph 1016.5mb 59f 65f
9:48am 11 14 mph 1016.5mb 59f 67f
9:42am 9 11 mph 1016.5mb 59f 69f
9:36am 8 13 mph 1016.5mb 59f 71f
9:30am 8 13 mph 1016.5mb 59f 73f
9:24am 2 8 mph 1016.5mb 59f 74f
9:18am 6 10 mph 1016.5mb 59f 73f
9:12am 7 9 mph 1016.6mb 59f 69f
9:06am 6 8 mph 1016.8mb 59f 72f
9:00am 6 9 mph 1016.7mb 58f 72f
8:54am 7 10 mph 1016.8mb 58f 69f
8:48am 8 13 mph 1016.9mb 58f 72f
8:42am 8 13 mph 1017mb 58f 71f
8:36am 9 14 mph 1017mb 58f 71f
8:30am 8 11 mph 1017mb 58f 71f
8:24am 7 10 mph 1017mb 58f 71f
8:18am 7 9 mph 1017mb 58f 66f
8:12am 7 9 mph 1016.9mb 58f 67f
8:06am 7 9 mph 1016.9mb 58f 67f
8:00am 8 11 mph 1016.9mb 58f 65f
7:54am 11 13 mph 1017mb 58f 64f
7:48am 11 14 mph 1017.2mb 58f 64f
7:42am 11 13 mph 1017.2mb 58f 63f
7:36am 10 13 mph 1017.2mb 58f 63f
7:30am 11 14 mph 1017.3mb 58f 63f
7:24am 13 15 mph 1017.3mb 57f 62f
7:18am 11 15 mph 1017.4mb 57f 63f
7:12am 11 14 mph 1017.4mb 57f 63f
7:06am 11 13 mph 1017.4mb 57f 63f
7:00am 10 11 mph 1017.4mb 57f 64f
6:54am 9 10 mph 1017.3mb 57f 64f
6:48am 6 7 mph 1017.2mb 57f 64f
6:42am 5
mph
1017.2mb 57f 64f
6:36am 3 5 mph 1017.1mb 57f 63f
6:30am 3 5 mph 1017.1mb 57f 62f
6:24am 3 6 mph 1017.2mb 57f 62f
6:18am 6 8 mph 1017.2mb 57f 62f
6:12am 8 9 mph 1017.3mb 57f 62f
6:06am 6 7 mph 1017.3mb 57f 62f
6:00am 5 8 mph 1017.3mb 57f 62f
5:54am 7 8 mph 1017.4mb 57f 61f
5:48am 2 5 mph 1017.4mb 56f 60f
5:42am 2
mph
1017.4mb 56f 58f
5:36am 2
mph
1017.3mb 56f 58f
5:30am 2
mph
1017.2mb 56f 58f
5:24am 1 2 mph 1017.2mb 56f 58f
5:18am 2
mph
1017.2mb 56f 57f
5:12am 2
mph
1017.2mb 57f 57f
5:06am 2
mph
1017.1mb 56f 57f
5:00am 1 2 mph 1017mb 56f 57f
4:54am 1 2 mph 1017mb 56f 57f
4:48am 1 2 mph 1017mb 56f 58f
4:42am  -  1 mph 1016.9mb 56f 58f
4:36am  -  1 mph 1016.9mb 56f 58f
4:30am  -  1 mph 1016.9mb 56f 58f
4:24am 1 2 mph 1016.8mb 57f 58f
4:18am  -  2 mph 1016.8mb 57f 57f
4:12am 1 2 mph 1016.8mb 57f 58f
4:06am  -  2 mph 1016.8mb 57f 58f
4:00am  -  mph 1016.9mb 56f 58f
3:54am  -  1 mph 1016.9mb 56f 58f
3:48am  -  2 mph 1016.8mb 56f 59f
3:42am  -  2 mph 1016.8mb 56f 59f
3:36am  -  3 mph 1016.9mb 57f 59f
3:30am 2 3 mph 1016.9mb 57f 59f
3:24am 2
mph
1017mb 57f 58f
3:18am 2 3 mph 1016.9mb 57f 58f
3:12am  -  3 mph 1016.8mb 57f 60f
3:06am 5 6 mph 1016.8mb 57f 60f
3:00am 1 2 mph 1016.9mb 57f 58f
2:54am 2
mph
1016.9mb 57f 58f
2:48am 2 3 mph 1016.9mb 57f -
2:42am 3
mph
1017mb 57f -
2:36am 3 5 mph 1017mb 57f -
2:30am 3
mph
1017.1mb 57f 58f
2:24am 1 2 mph 1017.1mb 58f 59f
2:18am 2 5 mph 1017.1mb 58f 59f
2:12am 3 5 mph 1017.1mb 58f 59f
2:06am  -  1 mph 1017.1mb 58f 59f
2:00am 1 3 mph 1017.3mb 58f 59f
1:54am 2 3 mph 1017.3mb 58f 59f
1:48am 2 3 mph 1017.3mb - -
1:42am 3
mph
1017.2mb - -
1:36am 1 2 mph 1017.2mb - -
1:30am 1
mph
1017.2mb 60f 60f
1:24am  -  2 mph 1017.3mb 61f 60f
1:18am 2
mph
1017.3mb 62f 60f
1:12am 2 3 mph 1017.3mb 63f 60f
1:06am 3 5 mph 1017.4mb 63f 60f
1:00am 2
mph
1017.4mb 63f 60f
12:54am 1 2 mph 1017.5mb 63f 59f
12:48am 1 2 mph 1017.5mb 63f 60f
12:42am  -  mph 1017.6mb 63f 60f
12:36am  -  1 mph 1017.6mb 63f 61f
12:30am  -  1 mph 1017.6mb 63f 61f
12:24am 1
mph
1017.6mb 63f 60f
12:18am  -  1 mph 1017.6mb 63f 60f
12:12am  -  1 mph 1017.7mb 63f 60f
12:06am 1
mph
1017.8mb 63f 60f
12:00am  -  1 mph 1017.8mb 63f 61f
Sun 06/26 11:54pm  -  1 mph 1017.8mb 63f 61f
11:48pm  -  1 mph 1017.9mb 63f 60f
11:42pm  -  1 mph 1017.9mb 63f 61f
11:36pm  -  1 mph 1017.9mb 63f 61f
11:30pm  -  2 mph 1017.9mb 63f 61f
11:24pm 1 2 mph 1018mb 63f 61f
11:18pm 1 2 mph 1018mb 63f 62f
11:12pm  -  1 mph 1018mb 63f 63f
11:06pm  -  1 mph 1018mb 63f 63f
11:00pm  -  mph 1018.1mb 63f -
10:54pm  -  mph 1018.2mb 63f -
10:48pm  -  mph - 63f -
10:42pm  -  mph - 62f -
10:36pm  -  mph - 62f -
10:30pm  -  mph 1018.4mb 62f -
10:24pm  -  mph 1018.4mb 62f -
10:18pm  -  mph 1018.4mb 62f 64f
10:12pm  -  mph 1018.4mb 62f 64f
10:06pm  -  mph 1018.5mb 62f 64f
10:00pm  -  mph - 62f -
9:54pm  -  mph - 62f -
9:48pm  -  mph - 62f -
9:42pm  -  mph - 62f -
9:36pm  -  mph - 62f -
9:30pm  -  mph 1018.4mb 62f -
9:24pm  -  mph 1018.4mb 61f -
9:18pm  -  mph 1018.4mb 61f -
9:12pm  -  mph 1018.4mb 61f -
9:06pm  -  mph 1018.5mb 61f -
9:00pm  -  mph 1018.5mb 61f -
8:54pm  -  mph 1018.4mb 61f -
8:48pm  -  mph - 61f -
8:42pm  -  mph - 61f -
8:36pm  -  mph - 60f -
8:30pm  -  mph - 60f -
8:24pm  -  mph - 60f -
8:18pm  -  mph 1018.7mb 60f 64f
8:12pm  -  mph 1018.7mb 60f 65f
8:06pm  -  mph 1018.8mb 60f 65f
8:00pm  -  mph - 60f -
7:54pm  -  mph - 60f -
7:48pm  -  mph - 59f -
7:42pm  -  mph - 59f -
7:36pm  -  mph - 59f -
7:30pm 7 9 mph 1019.1mb - -
7:24pm 7 9 mph 1019.2mb - -
7:18pm  -  mph 1019.3mb 59f 67f
7:12pm  -  mph 1019.3mb 59f 67f
7:06pm  -  mph 1019.4mb 58f 67f
7:00pm  -  mph 1019.4mb 58f -
6:54pm  -  mph 1019.4mb 58f -
6:48pm  -  mph - 58f -
6:42pm  -  mph - 58f -
6:36pm  -  mph - 57f -
6:30pm  -  mph - 57f -
6:24pm  -  mph - 57f -
6:18pm  -  mph 1019.6mb 56f 67f
6:12pm  -  mph 1019.6mb 56f 67f
6:06pm  -  mph 1019.8mb 56f 67f
6:00pm  -  mph 1020mb 56f -
5:54pm  -  mph 1020mb 56f -
5:48pm  -  mph 1020.2mb 56f -
5:42pm  -  mph 1020.3mb 56f -
5:36pm  -  mph 1020.3mb 55f -
5:30pm 10 11 mph 1020.3mb 55f 66f
5:24pm 8 9 mph 1020.5mb 55f 66f
5:18pm 8 9 mph 1020.5mb 55f 66f
5:12pm 7 10 mph 1020.5mb 55f 66f
5:06pm 7 10 mph 1020.6mb 55f 66f
5:00pm 6 7 mph 1020.7mb 55f 66f
4:54pm 6 8 mph 1020.8mb 55f 66f
4:48pm 6 10 mph 1020.8mb 55f 66f
4:42pm 7 10 mph 1020.8mb 55f 65f
4:36pm 7 8 mph 1020.8mb 56f 66f
4:30pm 7 9 mph 1020.8mb 56f 66f
4:24pm 6 8 mph 1020.9mb 56f 66f
4:18pm 6 8 mph 1020.8mb 56f 66f
4:12pm 7 8 mph 1020.8mb 56f 66f
4:06pm 7 10 mph 1020.8mb 56f 66f
4:00pm 9 10 mph 1020.8mb 56f 66f
3:54pm 7 10 mph 1020.8mb 56f 66f
3:48pm 8 10 mph 1021.1mb 56f 65f
3:42pm 9 11 mph 1021.1mb 56f 66f
3:36pm 7 10 mph 1021.1mb 56f 66f
3:30pm 9 13 mph 1021.1mb 56f 66f
3:24pm 11 13 mph 1021.2mb 56f 65f
3:18pm 11 14 mph 1021.3mb 56f 65f
3:12pm 10 14 mph 1021.3mb 56f 66f
3:06pm 10 14 mph 1021.3mb 56f 65f
3:00pm 11 14 mph 1021.3mb 57f 66f
2:54pm 10 16 mph 1021.3mb 57f 66f
2:48pm 13 16 mph 1021.4mb 57f 66f
2:42pm 14 16 mph 1021.4mb 57f 66f
2:36pm 14 17 mph 1021.4mb 57f 66f
2:30pm 14 17 mph 1021.3mb 57f 65f
2:24pm 13 15 mph 1021.3mb 57f 66f
2:18pm 11 16 mph 1021.4mb 58f 65f
2:12pm 13 17 mph 1021.4mb 58f 65f
2:06pm 13 15 mph 1021.4mb 58f 65f
2:00pm 13 15 mph 1021.6mb 58f 65f
1:54pm 11 14 mph 1021.6mb 58f 65f
1:48pm 13 15 mph 1021.6mb 58f 65f
1:42pm 10 14 mph 1021.5mb 58f 65f
1:36pm 10 14 mph 1021.6mb 58f 65f
1:30pm 10 14 mph 1021.7mb 58f 65f
1:24pm 10 15 mph 1021.8mb 58f 65f
1:18pm 11 14 mph 1021.8mb 58f 64f
1:12pm 11 14 mph 1021.8mb 58f 64f
1:06pm 11 14 mph 1021.7mb 58f 64f
1:00pm 11 14 mph 1021.7mb 58f 65f
12:54pm 11 14 mph 1021.9mb 58f 65f
12:48pm 10 14 mph 1022mb 58f 65f
12:42pm 10 15 mph 1021.9mb 58f 65f
12:36pm 11 15 mph 1021.9mb 57f 65f
12:30pm 10 14 mph 1021.9mb 57f 65f
12:24pm 8 10 mph 1021.9mb 57f 65f
12:18pm 8 9 mph 1021.9mb 57f 65f
12:12pm 6 8 mph 1021.9mb 57f 66f
12:06pm 6 8 mph 1022mb 57f 66f
12:00pm 6 10 mph 1022.1mb 57f 66f
11:54am 6 8 mph 1022.1mb 57f 66f
11:48am 7 8 mph 1022.1mb 57f 66f
11:42am 6 9 mph 1022.2mb 57f 65f
11:36am 7 10 mph 1022.2mb 57f 65f
11:30am 7 11 mph 1022.2mb 57f 65f
11:24am 6 9 mph 1022.3mb 57f 66f
11:18am 5 9 mph 1022.2mb 57f 65f
11:12am 7 10 mph 1022.2mb 57f 65f
11:06am 8 11 mph 1022.2mb 57f 65f
11:00am 9 11 mph 1022.1mb 57f 65f
10:54am 8 10 mph 1022.2mb 57f 65f
10:48am 9 10 mph 1022.2mb 56f 65f
10:42am 7 9 mph 1022.1mb 56f 65f
10:36am 7 9 mph 1022mb 56f 65f
10:30am 7 9 mph 1021.9mb 56f 66f
10:24am 7 10 mph 1021.9mb 56f 66f
10:18am 7 8 mph 1021.9mb 56f 66f
10:12am 7 8 mph 1021.8mb 56f 66f
10:06am 6 7 mph 1021.8mb 56f 66f
10:00am 7 9 mph 1022mb 56f 65f
9:54am 7 8 mph 1022mb 56f 66f
9:48am 6 7 mph 1021.9mb 56f 66f
9:42am 7 9 mph 1022.1mb 56f 65f
9:36am 8 9 mph 1022.2mb 56f 65f
9:30am 8 9 mph 1022.3mb 56f 65f
9:24am 7 8 mph 1022.3mb 56f 66f
9:18am 6 7 mph 1022.3mb 56f 66f
9:12am 6
mph
1022.3mb 56f 68f
9:06am 2 3 mph 1022.3mb 56f 69f
9:00am 2 3 mph 1022.4mb 56f 69f
8:54am 2 3 mph 1022.5mb 56f 68f
8:48am 3
mph
1022.5mb 56f 68f
8:42am 3
mph
1022.5mb 56f 67f
8:36am 2 3 mph 1022.5mb 56f 67f
8:30am 2 3 mph 1022.6mb 56f 65f
8:24am 3 5 mph 1022.7mb 56f 65f
8:18am 3 5 mph 1022.7mb 56f 65f
8:12am 5
mph
1022.6mb 56f 65f
8:06am 2 3 mph 1022.5mb 56f 65f
8:00am 2 3 mph 1022.6mb 55f 63f
7:54am 3 5 mph 1022.6mb 55f 63f
7:48am 5
mph
1022.5mb 55f 64f
7:42am 3 5 mph 1022.5mb 55f 65f
7:36am 3 5 mph 1022.4mb 55f 65f
7:30am 2 3 mph 1022.4mb 55f 65f
7:24am 2
mph
1022.3mb 55f 64f
7:18am 2 3 mph 1022.4mb 55f 64f
7:12am 1 2 mph 1022.4mb 55f 63f
7:06am 2
mph
1022.3mb 55f 64f
7:00am  -  mph 1022.4mb 55f 62f
6:54am  -  1 mph 1022.2mb 55f 62f
6:48am  -  1 mph 1022.2mb 55f 60f
6:42am 1
mph
1022.1mb 55f 58f
6:36am  -  1 mph 1022mb 55f 58f
6:30am  -  2 mph 1022.1mb 55f 57f
6:24am 1 2 mph 1022.1mb 55f 56f
6:18am  -  1 mph 1022.1mb 55f 57f
6:12am  -  1 mph 1022.2mb 55f 56f
6:06am  -  1 mph 1022.3mb 55f 55f
6:00am 1 2 mph 1022.3mb 55f 54f
5:54am  -  1 mph 1022.4mb 55f 54f
5:48am  -  2 mph 1022.4mb 54f 53f
5:42am 2
mph
1022.4mb 54f 53f
5:36am  -  1 mph 1022.4mb 54f 53f
5:30am  -  1 mph 1022.5mb 54f 52f
5:24am 1 3 mph 1022.5mb 54f 51f
5:18am 2 3 mph 1022.5mb 54f 51f
5:12am 2
mph
1022.5mb 54f 51f
5:06am 1 2 mph 1022.6mb 54f 52f
5:00am 1
mph
1022.5mb 54f 52f
4:54am  -  1 mph 1022.5mb 54f 51f
4:48am 1 2 mph 1022.5mb 54f 52f
4:42am 2
mph
1022.6mb 54f 51f
4:36am 1
mph
1022.6mb 54f 52f
4:30am 1 2 mph 1022.7mb 54f 52f
4:24am 2
mph
1022.8mb 54f 51f
4:18am 2 3 mph 1022.8mb 54f 51f
4:12am 2
mph
1022.8mb 54f 52f
4:06am 1 2 mph 1022.9mb 54f 52f
4:00am 1
mph
1022.9mb 54f 52f
3:54am  -  2 mph 1022.9mb 54f 52f
3:48am 1 2 mph 1022.8mb 54f 52f
3:42am 1
mph
1022.6mb 54f 52f
3:36am 2
mph
1022.6mb 54f 52f
3:30am 1 2 mph 1022.6mb 54f -
3:24am 2 3 mph 1022.7mb 54f -
3:18am 2
mph
1022.6mb 54f 52f
3:12am 2 3 mph 1022.5mb 54f 52f
3:06am 3
mph
1022.6mb 54f 52f
3:00am 3
mph
1022.5mb 54f 53f
2:54am 2
mph
1022.4mb 54f 53f
2:48am 1 2 mph 1022.4mb 54f -
2:42am 1 2 mph 1022.3mb 55f -
2:36am 2 3 mph 1022.4mb 55f -
2:30am 3
mph
1022.3mb 55f 52f
2:24am 2
mph
1022.2mb 55f 53f
2:18am 2
mph
1022mb 55f 53f
2:12am 2
mph
1021.9mb 55f 53f
2:06am  -  1 mph 1021.9mb 55f 54f
2:00am  -  mph 1021.8mb 55f 54f
1:54am  -  mph 1021.8mb 55f 54f
1:48am  -  mph 1021.8mb 55f 54f
1:42am  -  mph 1021.7mb 55f 54f
1:36am  -  mph 1021.8mb 55f 54f
1:30am 1
mph
1021.9mb 55f 54f
1:24am 1 2 mph 1022mb 55f 54f
1:18am 2
mph
1022mb 55f 54f
1:12am 2
mph
1022mb 55f 55f
1:06am 2
mph
1022.1mb 55f 55f
1:00am 2
mph
1022.1mb 55f 55f
12:54am 2
mph
1022.2mb 56f 55f
12:48am 2 3 mph 1022.4mb 56f 55f
12:42am 2
mph
1022.4mb 57f 56f
12:36am 2
mph
1022.4mb 58f 56f
12:30am  -  2 mph 1022.3mb 58f 57f
12:24am 2 3 mph 1022.3mb 60f 57f
12:18am 2
mph
1022.4mb 61f 56f
12:12am 2
mph
1022.4mb 62f 55f
12:06am 2
mph
1022.4mb 62f 56f
12:00am  -  1 mph 1022.3mb 62f 56f
Sat 06/25 11:54pm  -  1 mph 1022.3mb 62f 56f
11:48pm  -  mph 1022.4mb 62f 56f
11:42pm  -  mph 1022.4mb 62f 56f
11:36pm  -  mph 1022.4mb 62f 56f
11:30pm 2
mph
1022.4mb 62f 56f
11:24pm  -  1 mph 1022.4mb 62f 56f
11:18pm  -  1 mph 1022.4mb 62f 57f
11:12pm  -  2 mph 1022.5mb 62f 56f
11:06pm 1 2 mph 1022.6mb 62f 56f
11:00pm  -  mph 1022.6mb 62f 57f
10:54pm  -  mph 1022.7mb 62f 57f
10:48pm  -  mph 1022.6mb 62f -
10:42pm  -  mph 1022.5mb 62f -
10:36pm  -  mph 1022.5mb 62f -
10:30pm  -  mph 1022.5mb 62f 57f
10:24pm  -  mph 1022.5mb 62f 57f
10:18pm  -  mph - 62f 58f
10:12pm  -  mph - 62f 58f
10:06pm  -  mph - 62f 59f
10:00pm  -  mph - 62f 59f
9:54pm  -  mph - 62f 60f
9:48pm  -  mph - 62f -
9:42pm  -  mph - 62f -
9:36pm  -  mph - 62f -
9:30pm  -  mph 1022.6mb 62f -
9:24pm  -  mph 1022.6mb 62f -
9:18pm  -  mph 1022.6mb 62f 62f
9:12pm  -  mph 1022.5mb 62f 62f
9:06pm  -  mph 1022.4mb 61f 62f
9:00pm  -  mph 1022.2mb 61f -
8:54pm  -  mph 1022.1mb 61f -
8:48pm  -  mph 1022.1mb 61f -
8:42pm  -  mph 1022mb 61f -
8:36pm  -  mph 1022mb 61f -
8:30pm 7
mph
- - -
8:24pm 7 8 mph - - -
8:18pm  -  mph 1021.9mb 61f 62f
8:12pm  -  mph 1021.9mb 61f 63f
8:06pm  -  mph 1021.9mb 61f 63f
8:00pm  -  mph - 61f -
7:54pm  -  mph - 60f -
7:48pm  -  mph - 60f -
7:42pm  -  mph - 60f -
7:36pm  -  mph - 60f -
7:30pm  -  mph 1021.6mb 60f -
7:24pm  -  mph 1021.6mb 60f -
7:18pm  -  mph 1021.6mb 60f 65f
7:12pm  -  mph 1021.6mb 60f 65f
7:06pm  -  mph 1021.6mb 60f 65f
7:00pm  -  mph 1021.6mb 60f -
6:54pm  -  mph 1021.6mb 59f -
6:48pm  -  mph - 59f -
6:42pm  -  mph - 59f -
6:36pm  -  mph - 59f -
6:30pm  -  mph 1021.5mb 59f -
6:24pm  -  mph 1021.5mb 59f -
6:18pm  -  mph 1021.4mb 59f 65f
6:12pm  -  mph 1021.6mb 59f 65f
6:06pm  -  mph 1021.5mb 58f 65f
6:00pm  -  mph - 58f -
5:54pm  -  mph - 58f -
5:48pm  -  mph 1021.5mb 58f -
5:42pm  -  mph 1021.6mb 58f -
5:36pm  -  mph 1021.8mb 58f -
5:30pm 13 15 mph 1021.8mb 58f 66f
5:24pm 11 15 mph 1022mb 58f 65f
5:18pm 11 14 mph 1021.9mb 58f 65f
5:12pm 11 14 mph 1022mb 58f 65f
5:06pm 11 14 mph 1021.9mb 57f 65f
5:00pm 10 14 mph 1022mb 57f 64f
4:54pm 11 15 mph 1021.9mb 57f 64f
4:48pm 11 14 mph 1022mb 57f 64f
4:42pm 13 15 mph 1022mb 57f 64f
4:36pm 10 13 mph 1022.1mb 57f 64f
4:30pm 9 11 mph 1022.1mb 57f 65f
4:24pm 9 14 mph 1022.1mb 57f 65f
4:18pm 10 14 mph 1022.2mb 57f 64f
4:12pm 10 13 mph 1022.2mb 57f 64f
4:06pm 10 13 mph 1022.2mb 57f 64f
4:00pm 10 14 mph 1022.1mb 57f 64f
3:54pm 10 14 mph 1022.1mb 57f 64f
3:48pm 9 11 mph 1022.1mb 57f 64f
3:42pm 10 14 mph 1022mb 57f 64f
3:36pm 10 13 mph 1022mb 57f 64f
3:30pm 10 13 mph 1022mb 57f 64f
3:24pm 10 11 mph 1022.1mb 57f 64f
3:18pm 10 11 mph 1022.1mb 57f 64f
3:12pm 10 13 mph 1022.2mb 57f 64f
3:06pm 10 11 mph 1022.2mb 57f 64f
3:00pm 9 13 mph 1022.3mb 57f 64f
2:54pm 9 11 mph 1022.3mb 57f 64f
2:48pm 9 13 mph 1022.2mb 57f 64f
2:42pm 9 13 mph 1022.3mb 57f 64f
2:36pm 10 14 mph 1022.4mb 57f 64f
2:30pm 11 14 mph 1022.5mb 57f 64f
2:24pm 10 13 mph 1022.6mb 57f 64f
2:18pm 9 13 mph 1022.6mb 57f 65f
2:12pm 10 14 mph 1022.6mb 57f 65f
2:06pm 10 14 mph 1022.6mb 57f 64f
2:00pm 11 14 mph - 57f 64f
1:54pm 10 14 mph - 57f 65f
1:48pm 10 14 mph 1022.8mb 57f 65f
1:42pm 11 14 mph 1022.8mb 57f 65f
1:36pm 10 14 mph 1022.7mb 57f 65f
1:30pm 11 13 mph 1022.8mb 57f 65f
1:24pm 9 11 mph 1022.8mb 57f 65f
1:18pm 10 13 mph 1022.8mb 57f 65f
1:12pm 11 14 mph 1022.8mb 57f 65f
1:06pm 11 13 mph 1022.7mb 57f 65f
1:00pm  -  mph 1022.6mb 57f 65f
12:54pm  -  mph 1022.6mb 57f 65f
12:48pm 11 14 mph 1022.5mb 57f 65f
12:42pm 11 14 mph 1022.6mb 57f 66f
12:36pm 11 13 mph 1022.7mb 57f 65f
12:30pm 10 14 mph 1022.7mb 57f 65f
12:24pm 11 14 mph 1022.7mb 57f 65f
12:18pm 11 13 mph 1022.7mb 56f 65f
12:12pm 11 15 mph 1022.7mb 56f 64f
12:06pm 11 15 mph 1022.7mb 56f 64f
12:00pm 11 14 mph 1022.7mb 56f 64f
11:54am 13 15 mph 1022.7mb 55f 64f
11:48am 11 17 mph 1022.8mb 55f 64f
11:42am 14 16 mph 1022.7mb 55f 64f
11:36am 13 15 mph 1022.7mb 55f 64f
11:30am 14 17 mph 1022.7mb 55f 64f
11:24am 13 14 mph 1022.8mb 55f 64f
11:18am 10 14 mph 1022.7mb 55f 64f
11:12am 8 13 mph 1022.7mb 55f 64f
11:06am 8 10 mph 1022.7mb 55f 64f
11:00am 7 10 mph 1022.7mb 55f 64f
10:54am 5 8 mph 1022.8mb 55f 65f
10:48am 6 7 mph 1022.7mb 55f 65f
10:42am 5 7 mph 1022.8mb 55f 64f
10:36am 3 5 mph 1022.8mb 55f 65f
10:30am 5 7 mph 1022.8mb 55f 64f
10:24am 3 6 mph 1022.8mb 55f 64f
10:18am 5 6 mph 1022.7mb 55f 64f
10:12am 3 6 mph 1022.7mb 55f 63f
10:06am 5 7 mph 1022.7mb 55f 63f
10:00am 6 7 mph 1022.7mb 55f 64f
9:54am 5 7 mph 1022.6mb 55f 64f
9:48am 5 6 mph 1022.6mb 55f 64f
9:42am 3 6 mph 1022.6mb 55f 64f
9:36am 5 6 mph 1022.5mb 55f 63f
9:30am 6 7 mph 1022.5mb 55f 63f
9:24am 3 5 mph 1022.4mb 55f 64f
9:18am 3 6 mph 1022.4mb 55f 64f
9:12am 6 7 mph 1022.4mb 55f 63f
9:06am 5 6 mph 1022.4mb 55f 64f